Time;durP1;ratioP1;P1;durP2;ratioP2;P2;SDS_P1;SDS_P2;PMS_P1;PMS_P2;Temp;Humidity;BMP_temperature;BMP_pressure;BME280_temperature;BME280_humidity;BME280_pressure;Samples;Min_cycle;Max_cycle;Signal;HPM_P1;HPM_P2
2022/08/27 00:00:55;;;;;;;21.55;11.82;;;;;;;17.88;100.00;95991.59;4977094;28;20050;-81
2022/08/27 00:03:23;;;;;;;13.55;9.45;;;;;;;17.75;100.00;95979.25;4976525;28;20396;-81
2022/08/27 00:05:50;;;;;;;13.02;9.13;;;;;;;17.87;100.00;95979.00;4975785;28;20061;-81
2022/08/27 00:08:16;;;;;;;17.98;9.27;;;;;;;17.97;100.00;95981.09;4974165;28;20043;-79
2022/08/27 00:10:42;;;;;;;15.90;8.75;;;;;;;17.98;100.00;95985.44;4974726;28;20043;-81
2022/08/27 00:13:09;;;;;;;13.40;8.82;;;;;;;17.79;100.00;95976.53;4975342;28;20047;-79
2022/08/27 00:15:36;;;;;;;16.45;8.55;;;;;;;17.75;100.00;95970.97;4976308;28;20045;-80
2022/08/27 00:18:03;;;;;;;13.07;8.50;;;;;;;17.67;100.00;95963.75;4975505;28;20062;-79
2022/08/27 00:20:31;;;;;;;16.27;9.30;;;;;;;17.62;100.00;95964.88;4978769;28;20046;-80
2022/08/27 00:22:59;;;;;;;14.18;8.82;;;;;;;17.62;100.00;95961.31;4978101;28;20059;-82
2022/08/27 00:25:26;;;;;;;13.35;9.18;;;;;;;17.68;100.00;95959.81;4977174;28;20121;-80
2022/08/27 00:27:53;;;;;;;15.77;9.73;;;;;;;17.76;100.00;95964.31;4976572;28;20051;-81
2022/08/27 00:30:22;;;;;;;16.48;9.63;;;;;;;17.74;100.00;95961.09;4976543;28;20046;-81
2022/08/27 00:32:49;;;;;;;16.73;10.00;;;;;;;17.85;100.00;95970.28;4977879;28;20466;-80
2022/08/27 00:35:17;;;;;;;16.88;10.60;;;;;;;17.79;100.00;95963.53;4978183;28;20047;-81
2022/08/27 00:37:45;;;;;;;17.27;11.35;;;;;;;17.69;100.00;95962.19;4978340;28;20039;-81
2022/08/27 00:40:15;;;;;;;15.05;10.50;;;;;;;17.70;100.00;95957.50;4979527;28;20077;-81
2022/08/27 00:42:44;;;;;;;16.80;11.23;;;;;;;17.73;100.00;95959.53;4980331;28;20053;-82
2022/08/27 00:45:12;;;;;;;21.83;12.15;;;;;;;17.75;100.00;95954.47;4982100;28;20443;-82
2022/08/27 00:47:42;;;;;;;18.05;11.27;;;;;;;17.82;100.00;95949.03;4984623;28;20062;-83
2022/08/27 00:50:13;;;;;;;17.83;12.00;;;;;;;17.91;100.00;95949.53;4983243;28;20151;-81
2022/08/27 00:52:46;;;;;;;20.92;13.45;;;;;;;18.02;100.00;95948.88;4982497;28;20050;-81
2022/08/27 00:55:24;;;;;;;24.33;13.45;;;;;;;18.06;100.00;95952.44;4980755;28;20054;-81
2022/08/27 00:58:02;;;;;;;22.42;15.50;;;;;;;18.05;100.00;95945.34;4982707;28;20058;-82
2022/08/27 01:00:28;;;;;;;30.27;16.67;;;;;;;17.98;100.00;95946.88;4956866;28;20050;-81
2022/08/27 01:02:55;;;;;;;24.27;16.25;;;;;;;18.10;100.00;95948.56;4975002;28;20414;-81
2022/08/27 01:05:25;;;;;;;22.30;15.27;;;;;;;18.17;100.00;95948.66;4981521;28;20050;-82
2022/08/27 01:07:57;;;;;;;23.90;14.82;;;;;;;18.18;100.00;95949.44;4974252;28;20062;-81
2022/08/27 01:10:29;;;;;;;25.27;15.57;;;;;;;18.28;100.00;95954.28;4983832;28;20076;-83
2022/08/27 01:12:56;;;;;;;27.17;17.75;;;;;;;18.07;100.00;95951.31;4983718;28;20070;-82
2022/08/27 01:15:24;;;;;;;25.52;16.80;;;;;;;18.03;100.00;95959.50;4979309;28;20051;-82
2022/08/27 01:17:52;;;;;;;25.50;16.17;;;;;;;18.05;100.00;95961.88;4978829;28;20143;-81
2022/08/27 01:20:22;;;;;;;25.92;16.30;;;;;;;18.09;100.00;95962.72;4980531;28;20444;-81
2022/08/27 01:22:58;;;;;;;26.02;17.00;;;;;;;18.09;100.00;95957.22;4981409;28;20506;-83
2022/08/27 01:25:27;;;;;;;27.88;16.85;;;;;;;18.18;100.00;95958.50;4979683;28;20061;-81
2022/08/27 01:27:59;;;;;;;26.98;18.00;;;;;;;18.20;100.00;95969.16;4982302;28;20054;-83
2022/08/27 01:30:26;;;;;;;30.63;17.80;;;;;;;18.15;100.00;95983.25;4982837;28;20077;-80
2022/08/27 01:32:53;;;;;;;28.15;17.10;;;;;;;17.97;100.00;95980.31;4983482;28;20053;-82
2022/08/27 01:35:22;;;;;;;23.85;14.95;;;;;;;18.02;100.00;95990.22;4981671;28;20069;-82
2022/08/27 01:37:50;;;;;;;29.67;18.80;;;;;;;17.86;100.00;95993.16;4982098;28;20047;-83
2022/08/27 01:40:18;;;;;;;30.77;18.40;;;;;;;17.85;100.00;95981.31;4979854;28;20391;-83
2022/08/27 01:42:49;;;;;;;31.65;17.77;;;;;;;17.70;100.00;95987.78;4980005;28;20051;-82
2022/08/27 01:45:18;;;;;;;33.22;18.58;;;;;;;17.70;100.00;95991.34;4980506;28;20061;-81
2022/08/27 01:47:45;;;;;;;30.70;17.98;;;;;;;17.63;100.00;95996.72;4964505;28;20080;-82
2022/08/27 01:50:15;;;;;;;30.85;18.92;;;;;;;17.64;100.00;95992.03;4981790;28;20054;-79
2022/08/27 01:52:42;;;;;;;31.95;18.48;;;;;;;17.67;100.00;95991.28;4986726;28;20042;-79
2022/08/27 01:55:10;;;;;;;27.23;16.92;;;;;;;17.45;100.00;95991.00;4985632;28;20396;-81
2022/08/27 01:57:38;;;;;;;32.05;17.85;;;;;;;17.46;100.00;95987.06;4967459;28;20057;-82
2022/08/27 02:00:09;;;;;;;27.40;17.63;;;;;;;17.44;100.00;95983.91;4982187;28;20050;-80
2022/08/27 02:02:38;;;;;;;30.05;17.85;;;;;;;17.45;100.00;95987.44;4984475;28;20046;-83
2022/08/27 02:05:06;;;;;;;26.35;16.02;;;;;;;17.59;100.00;95981.31;4983679;28;20598;-82
2022/08/27 02:07:34;;;;;;;28.25;16.92;;;;;;;17.66;100.00;95975.94;4983486;28;20072;-80
2022/08/27 02:10:00;;;;;;;22.92;15.20;;;;;;;17.72;100.00;95983.53;4984026;28;20053;-82
2022/08/27 02:12:27;;;;;;;23.08;15.65;;;;;;;17.76;100.00;95977.28;4983074;28;20050;-81
2022/08/27 02:14:53;;;;;;;21.67;14.90;;;;;;;17.79;100.00;95977.31;4983652;28;20050;-82
2022/08/27 02:17:22;;;;;;;22.85;14.32;;;;;;;17.85;100.00;95980.53;4982473;28;20047;-83
2022/08/27 02:19:50;;;;;;;25.77;16.13;;;;;;;17.91;100.00;95984.56;4983909;28;20119;-82
2022/08/27 02:22:16;;;;;;;24.52;16.23;;;;;;;17.90;100.00;95982.94;4982688;28;20046;-80
2022/08/27 02:24:43;;;;;;;28.83;16.30;;;;;;;17.85;100.00;95981.31;4968291;28;20050;-81
2022/08/27 02:27:09;;;;;;;23.00;14.63;;;;;;;17.89;100.00;95978.63;4984281;28;20054;-82
2022/08/27 02:29:36;;;;;;;23.13;15.25;;;;;;;17.93;100.00;95983.00;4984764;28;20043;-81
2022/08/27 02:32:10;;;;;;;18.75;13.40;;;;;;;17.90;100.00;95982.94;4985412;28;20054;-82
2022/08/27 02:34:38;;;;;;;21.88;13.88;;;;;;;17.95;100.00;95988.91;4968766;28;20058;-81
2022/08/27 02:37:06;;;;;;;21.65;12.40;;;;;;;17.99;100.00;95980.72;4985062;28;20042;-80
2022/08/27 02:39:33;;;;;;;18.55;12.50;;;;;;;18.03;100.00;95989.03;4983374;28;20071;-81
2022/08/27 02:41:59;;;;;;;22.90;15.45;;;;;;;18.00;100.00;95977.56;4985085;28;20118;-80
2022/08/27 02:44:26;;;;;;;19.70;12.93;;;;;;;18.03;100.00;95981.56;4984579;28;20046;-81
2022/08/27 02:46:56;;;;;;;23.90;14.10;;;;;;;17.94;100.00;95990.09;4985978;28;20047;-81
2022/08/27 02:49:22;;;;;;;19.25;13.45;;;;;;;18.00;100.00;95998.81;4967387;28;20054;-81
2022/08/27 02:51:55;;;;;;;19.60;13.35;;;;;;;18.10;100.00;95991.88;4984051;28;20051;-83
2022/08/27 02:54:24;;;;;;;24.65;15.38;;;;;;;18.09;100.00;95995.78;4985061;28;20047;-81
2022/08/27 02:56:52;;;;;;;20.77;14.00;;;;;;;18.05;100.00;95995.75;4988113;28;20043;-82
2022/08/27 02:59:19;;;;;;;19.65;13.90;;;;;;;18.10;100.00;95989.09;4983901;28;20050;-79
2022/08/27 03:01:46;;;;;;;17.40;11.98;;;;;;;18.18;100.00;95993.53;4986669;28;20043;-80
2022/08/27 03:04:13;;;;;;;22.58;14.20;;;;;;;18.18;100.00;95993.53;4984787;28;20050;-81
2022/08/27 03:06:40;;;;;;;20.17;14.02;;;;;;;18.10;100.00;95997.38;4985370;28;20043;-83
2022/08/27 03:09:09;;;;;;;23.02;14.13;;;;;;;18.12;100.00;95989.53;4985223;28;20042;-80
2022/08/27 03:11:35;;;;;;;24.08;14.27;;;;;;;17.95;100.00;95986.16;4974609;28;20094;-80
2022/08/27 03:14:03;;;;;;;18.52;13.35;;;;;;;18.06;100.00;95993.78;4983317;28;20043;-82
2022/08/27 03:16:30;;;;;;;22.45;14.88;;;;;;;17.98;100.00;95992.91;4986222;28;20043;-80
2022/08/27 03:18:56;;;;;;;23.27;14.80;;;;;;;17.98;100.00;95985.44;4967874;28;20507;-81
2022/08/27 03:21:25;;;;;;;20.02;13.98;;;;;;;18.07;100.00;95992.63;4985070;28;20070;-81
2022/08/27 03:23:52;;;;;;;21.65;13.30;;;;;;;18.14;100.00;95989.94;4985774;28;20046;-82
2022/08/27 03:26:20;;;;;;;24.98;14.75;;;;;;;18.16;100.00;95987.59;4985525;28;20050;-81
2022/08/27 03:28:47;;;;;;;21.08;14.23;;;;;;;18.18;100.00;95977.00;4967537;28;20043;-84
2022/08/27 03:31:16;;;;;;;22.05;13.15;;;;;;;18.22;100.00;95980.59;4985547;28;20058;-81
2022/08/27 03:33:42;;;;;;;21.17;14.07;;;;;;;18.25;100.00;95982.59;4986318;28;20049;-81
2022/08/27 03:36:10;;;;;;;22.17;14.18;;;;;;;18.25;100.00;95979.84;4985177;28;20114;-83
2022/08/27 03:38:36;;;;;;;20.73;12.85;;;;;;;18.19;100.00;95984.09;4986247;28;20045;-82
2022/08/27 03:41:04;;;;;;;18.55;12.88;;;;;;;18.18;100.00;95991.59;4967907;28;20046;-81
2022/08/27 03:43:32;;;;;;;19.58;12.65;;;;;;;18.16;100.00;95987.59;4986895;28;20043;-80
2022/08/27 03:45:59;;;;;;;19.80;13.45;;;;;;;18.20;100.00;95985.69;4984556;28;20054;-82
2022/08/27 03:48:27;;;;;;;26.75;14.68;;;;;;;18.16;100.00;95991.16;4973075;28;20054;-81
2022/08/27 03:50:53;;;;;;;18.33;13.45;;;;;;;18.15;100.00;95983.25;4967784;28;20241;-81
2022/08/27 03:53:20;;;;;;;24.27;14.68;;;;;;;18.15;100.00;95988.78;4987262;28;20051;-82
2022/08/27 03:55:47;;;;;;;26.42;14.68;;;;;;;18.17;100.00;95981.72;4969166;28;20047;-82
2022/08/27 03:58:17;;;;;;;20.73;13.18;;;;;;;18.13;100.00;95980.88;4986055;28;20051;-84
2022/08/27 04:00:45;;;;;;;21.60;13.68;;;;;;;18.16;100.00;95980.13;4988091;28;20129;-83
2022/08/27 04:03:13;;;;;;;21.77;13.98;;;;;;;18.12;100.00;95981.28;4985524;28;20070;-83
2022/08/27 04:05:41;;;;;;;23.35;14.60;;;;;;;18.08;100.00;95977.69;4986664;28;20110;-83
2022/08/27 04:08:07;;;;;;;19.02;13.95;;;;;;;18.10;100.00;95980.84;4985745;28;20078;-80
2022/08/27 04:10:34;;;;;;;19.20;13.82;;;;;;;18.09;100.00;95982.00;4970542;28;20047;-83
2022/08/27 04:13:00;;;;;;;22.45;14.70;;;;;;;17.99;100.00;95976.00;4985828;28;20054;-81
2022/08/27 04:15:27;;;;;;;21.92;13.80;;;;;;;17.96;100.00;95971.25;4982036;28;20047;-81
2022/08/27 04:17:55;;;;;;;23.65;14.30;;;;;;;17.92;100.00;95969.63;4986157;28;20055;-83
2022/08/27 04:20:22;;;;;;;22.95;13.85;;;;;;;17.94;100.00;95973.56;4985738;28;20051;-83
2022/08/27 04:22:48;;;;;;;21.83;13.95;;;;;;;17.99;100.00;95976.00;4966876;28;20051;-83
2022/08/27 04:25:15;;;;;;;25.00;13.68;;;;;;;18.07;100.00;95981.59;4966156;29;20046;-85
2022/08/27 04:27:42;;;;;;;23.95;13.90;;;;;;;18.08;100.00;95977.69;4951365;29;20049;-85
2022/08/27 04:30:09;;;;;;;25.75;15.50;;;;;;;18.10;100.00;95975.31;4968385;29;20051;-82
2022/08/27 04:32:36;;;;;;;22.17;14.90;;;;;;;18.15;100.00;95986.00;4968914;29;20098;-82
2022/08/27 04:35:05;;;;;;;20.40;13.23;;;;;;;18.08;100.00;95988.69;4971869;29;20051;-80
2022/08/27 04:37:33;;;;;;;20.30;12.93;;;;;;;18.10;100.00;95997.38;4971043;29;20047;-82
2022/08/27 04:39:59;;;;;;;21.05;12.60;;;;;;;18.13;100.00;95994.66;4969592;29;20059;-81
2022/08/27 04:42:27;;;;;;;22.00;14.48;;;;;;;18.13;100.00;95996.63;4969985;29;20050;-81
2022/08/27 04:44:53;;;;;;;23.75;14.68;;;;;;;18.11;100.00;95998.94;4971571;29;20055;-81
2022/08/27 04:47:20;;;;;;;20.80;14.68;;;;;;;18.19;100.00;95995.13;4969615;29;20080;-81
2022/08/27 04:49:47;;;;;;;25.65;15.23;;;;;;;18.08;100.00;95995.00;4970674;29;20047;-82
2022/08/27 04:52:15;;;;;;;24.75;14.75;;;;;;;18.14;100.00;95992.72;4986907;28;20050;-81
2022/08/27 04:54:42;;;;;;;18.95;12.77;;;;;;;18.22;100.00;95999.91;5054050;23;20050;-77
2022/08/27 04:57:09;;;;;;;20.55;12.50;;;;;;;18.25;100.00;95999.91;5007060;28;20049;-82
2022/08/27 04:59:37;;;;;;;20.55;13.10;;;;;;;18.27;100.00;95996.81;5009473;28;20038;-83
2022/08/27 05:02:07;;;;;;;20.45;13.27;;;;;;;18.28;100.00;96011.38;5008342;28;20101;-80
2022/08/27 05:04:35;;;;;;;18.05;12.57;;;;;;;18.29;100.00;96004.69;5008490;28;20050;-82
2022/08/27 05:07:02;;;;;;;18.52;12.57;;;;;;;18.33;100.00;96009.09;5007517;28;20463;-79
2022/08/27 05:09:30;;;;;;;24.38;14.05;;;;;;;18.34;100.00;96012.63;5008268;28;20050;-81
2022/08/27 05:11:56;;;;;;;22.90;14.55;;;;;;;18.29;100.00;96004.69;5008296;28;20053;-83
2022/08/27 05:14:28;;;;;;;25.63;13.95;;;;;;;18.22;100.00;96008.16;4988593;28;20044;-83
2022/08/27 05:16:57;;;;;;;21.02;12.90;;;;;;;18.33;100.00;96009.09;4997625;28;20077;-82
2022/08/27 05:19:24;;;;;;;28.67;13.85;;;;;;;18.32;100.00;96010.22;5011531;28;20069;-82
2022/08/27 05:21:52;;;;;;;22.73;13.32;;;;;;;18.28;100.00;96012.16;5075201;23;20050;-84
2022/08/27 05:24:20;;;;;;;21.65;13.25;;;;;;;18.24;100.00;96003.84;5006953;28;20050;-81
2022/08/27 05:26:51;;;;;;;20.02;12.95;;;;;;;18.23;100.00;96007.00;5003089;28;20046;-82
2022/08/27 05:29:19;;;;;;;23.38;12.85;;;;;;;18.12;100.00;96011.59;5000151;28;20046;-84
2022/08/27 05:31:46;;;;;;;16.40;11.43;;;;;;;18.17;100.00;96011.25;5005504;28;20043;-82
2022/08/27 05:34:13;;;;;;;18.90;12.48;;;;;;;18.22;100.00;96002.66;4989418;28;20055;-81
2022/08/27 05:36:40;;;;;;;21.55;12.43;;;;;;;18.22;100.00;96005.41;5007169;28;20046;-82
2022/08/27 05:39:07;;;;;;;24.52;11.98;;;;;;;18.05;100.00;95998.50;5006868;28;20133;-82
2022/08/27 05:41:35;;;;;;;16.65;11.23;;;;;;;18.10;100.00;96003.66;5009847;28;20030;-83
2022/08/27 05:44:06;;;;;;;19.23;12.20;;;;;;;17.92;100.00;96003.47;5007185;28;20110;-82
2022/08/27 05:46:33;;;;;;;16.40;11.65;;;;;;;17.93;100.00;95994.03;5003925;28;20078;-81
2022/08/27 05:49:00;;;;;;;20.63;11.82;;;;;;;17.99;100.00;95992.53;4992142;28;20502;-81
2022/08/27 05:51:30;;;;;;;18.80;12.07;;;;;;;17.92;100.00;95995.19;4981153;28;20050;-83
2022/08/27 05:53:59;;;;;;;18.70;12.48;;;;;;;17.96;100.00;96000.75;4958787;28;20055;-80
2022/08/27 05:56:28;;;;;;;17.17;11.13;;;;;;;18.07;100.00;96003.66;4981691;28;20078;-79
2022/08/27 06:01:43;;;;;;;21.92;12.10;;;;;;;17.74;100.00;95992.19;4959332;28;20094;-81
2022/08/27 06:04:11;;;;;;;15.95;11.13;;;;;;;17.83;100.00;95993.88;4943021;28;20059;-81
2022/08/27 06:06:40;;;;;;;19.63;11.80;;;;;;;17.85;100.00;95997.84;4957520;28;20047;-80
2022/08/27 06:09:09;;;;;;;16.05;11.80;;;;;;;17.85;100.00;95995.09;4957315;28;20499;-80
2022/08/27 06:11:41;;;;;;;19.48;11.40;;;;;;;17.94;100.00;96003.88;4963787;28;20081;-83
2022/08/27 06:14:08;;;;;;;18.77;11.38;;;;;;;17.92;100.00;95994.41;4966250;28;20055;-82
2022/08/27 06:16:39;;;;;;;17.98;11.43;;;;;;;18.03;100.00;95997.28;4954382;29;20099;-84
2022/08/27 06:19:07;;;;;;;21.42;12.05;;;;;;;17.84;100.00;95996.25;4960951;28;20077;-81
2022/08/27 06:21:34;;;;;;;21.60;12.63;;;;;;;17.97;100.00;95997.63;4976016;28;20069;-84
2022/08/27 06:24:02;;;;;;;21.75;11.15;;;;;;;17.99;100.00;96003.53;4989321;28;20585;-83
2022/08/27 06:26:29;;;;;;;15.90;10.63;;;;;;;18.06;100.00;96002.03;4987058;28;20050;-81
2022/08/27 06:28:56;;;;;;;15.18;11.00;;;;;;;18.10;100.00;95991.88;4975817;28;20054;-83
2022/08/27 06:31:25;;;;;;;18.33;11.85;;;;;;;18.11;100.00;95996.19;4978958;28;20042;-82
2022/08/27 06:33:54;;;;;;;17.13;11.40;;;;;;;18.15;100.00;95997.81;4981454;28;20050;-83
2022/08/27 06:36:24;;;;;;;14.60;10.23;;;;;;;18.26;100.00;95995.19;4952078;28;20050;-86
2022/08/27 06:38:51;;;;;;;15.50;10.55;;;;;;;18.25;100.00;95999.91;4979915;28;20053;-86
2022/08/27 06:41:19;;;;;;;13.65;9.35;;;;;;;18.25;100.00;95999.13;4971968;28;20043;-82
2022/08/27 06:43:46;;;;;;;14.68;10.13;;;;;;;18.25;100.00;96004.66;4963605;28;20054;-81
2022/08/27 06:46:17;;;;;;;15.38;10.52;;;;;;;18.31;100.00;96002.34;4958392;28;20055;-82
2022/08/27 06:48:45;;;;;;;17.00;10.35;;;;;;;18.44;100.00;95996.19;4956716;29;20059;-82
2022/08/27 06:51:15;;;;;;;14.13;9.55;;;;;;;18.51;100.00;96007.28;4953172;28;20051;-80
2022/08/27 06:53:44;;;;;;;16.38;10.95;;;;;;;18.36;100.00;96005.56;4954646;28;20834;-80
2022/08/27 06:56:12;;;;;;;13.13;9.85;;;;;;;18.44;100.00;96011.97;4952468;28;20051;-80
2022/08/27 06:58:39;;;;;;;15.80;9.50;;;;;;;18.65;100.00;96014.16;4952935;28;20890;-80
2022/08/27 07:01:12;;;;;;;16.65;10.70;;;;;;;18.68;100.00;96010.66;4952994;28;20518;-81
2022/08/27 07:03:39;;;;;;;17.00;10.27;;;;;;;18.64;99.83;96012.56;4955911;28;20054;-79
2022/08/27 07:06:08;;;;;;;13.60;10.25;;;;;;;18.69;99.71;96012.25;4953018;28;20078;-78
2022/08/27 07:08:34;;;;;;;14.40;9.57;;;;;;;18.70;100.00;96013.84;4952824;28;20051;-80
2022/08/27 07:11:02;;;;;;;14.02;9.65;;;;;;;18.81;99.61;96009.22;4965500;28;20047;-83
2022/08/27 07:13:29;;;;;;;16.25;9.70;;;;;;;18.83;99.39;96012.38;4992078;28;20043;-86
2022/08/27 07:15:56;;;;;;;14.60;9.25;;;;;;;18.86;98.52;96011.63;4992713;28;20054;-84
2022/08/27 07:18:22;;;;;;;15.05;10.18;;;;;;;18.66;95.72;96013.75;4970419;28;20054;-83
2022/08/27 07:20:51;;;;;;;14.05;9.15;;;;;;;18.79;95.86;96011.53;4980679;28;20478;-81
2022/08/27 07:23:18;;;;;;;17.63;10.50;;;;;;;18.77;97.54;96013.91;4986200;28;20046;-82
2022/08/27 07:25:44;;;;;;;15.10;10.07;;;;;;;18.80;97.50;96013.16;4986126;28;20058;-85
2022/08/27 07:28:17;;;;;;;13.20;9.70;;;;;;;18.89;97.22;96023.84;4989365;28;20050;-83
2022/08/27 07:30:44;;;;;;;17.83;10.93;;;;;;;18.85;95.16;96021.09;4999243;23;20057;-86
2022/08/27 07:33:11;;;;;;;15.15;9.93;;;;;;;18.89;93.63;96027.41;5010218;28;20065;-84
2022/08/27 07:35:38;;;;;;;16.38;11.00;;;;;;;18.87;94.67;96021.47;5001046;28;20050;-81
2022/08/27 07:38:05;;;;;;;16.52;9.55;;;;;;;18.98;95.54;96025.13;4997922;28;20038;-83
2022/08/27 07:40:32;;;;;;;17.02;9.80;;;;;;;19.00;96.08;96017.28;4992171;28;20129;-80
2022/08/27 07:45:47;;;;;;;13.30;9.38;;;;;;;19.02;94.74;96020.44;4992731;28;20113;-78
2022/08/27 07:48:14;;;;;;;17.63;9.50;;;;;;;18.85;93.91;96031.31;4988937;28;20046;-79
2022/08/27 07:50:41;;;;;;;13.02;8.95;;;;;;;18.96;94.59;96030.25;4987056;28;20777;-78
2022/08/27 07:53:07;;;;;;;13.98;9.82;;;;;;;18.93;94.25;96039.28;4974110;28;20057;-83
2022/08/27 07:55:36;;;;;;;13.93;9.55;;;;;;;18.99;93.66;96037.75;4983895;28;20054;-84
2022/08/27 07:58:03;;;;;;;15.00;9.55;;;;;;;19.00;95.14;96035.78;4987251;28;20062;-80
2022/08/27 08:00:30;;;;;;;13.02;8.60;;;;;;;19.13;94.25;96036.31;4986738;28;20031;-78
2022/08/27 08:02:58;;;;;;;13.18;8.90;;;;;;;19.11;93.20;96041.41;4979786;28;20055;-85
2022/08/27 08:05:24;;;;;;;14.45;9.48;;;;;;;19.15;92.58;96048.53;5001499;23;20561;-79
2022/08/27 08:07:51;;;;;;;14.35;10.43;;;;;;;19.13;93.46;96047.34;4969905;28;20054;-79
2022/08/27 08:10:20;;;;;;;16.75;10.13;;;;;;;19.22;93.89;96045.06;4970098;28;20053;-79
2022/08/27 08:12:47;;;;;;;14.98;9.52;;;;;;;19.25;94.31;96053.34;4972048;28;20089;-79
2022/08/27 08:15:16;;;;;;;15.45;10.68;;;;;;;19.30;94.97;96057.72;4985094;28;20062;-81
2022/08/27 08:17:42;;;;;;;19.60;10.65;;;;;;;19.09;92.37;96065.81;4994802;28;20115;-81
2022/08/27 08:20:12;;;;;;;14.75;10.57;;;;;;;19.16;92.44;96063.13;4993344;28;20053;-81
2022/08/27 08:22:39;;;;;;;15.82;10.05;;;;;;;19.26;92.44;96062.44;4984830;28;20047;-81
2022/08/27 08:25:07;;;;;;;14.00;10.18;;;;;;;19.15;91.99;96062.34;4989702;28;20051;-81
2022/08/27 08:27:34;;;;;;;13.52;9.85;;;;;;;19.24;92.98;96071.09;4988325;28;20051;-82
2022/08/27 08:30:01;;;;;;;14.00;9.43;;;;;;;19.27;93.26;96075.06;4987729;28;20051;-81
2022/08/27 08:32:28;;;;;;;15.73;9.88;;;;;;;19.42;93.52;96071.25;4984803;28;20070;-81
2022/08/27 08:34:55;;;;;;;12.07;9.20;;;;;;;19.55;92.86;96072.53;4982917;28;20129;-81
2022/08/27 08:37:23;;;;;;;13.10;8.20;;;;;;;19.56;89.14;96076.88;4982488;28;20050;-81
2022/08/27 08:39:49;;;;;;;11.30;8.05;;;;;;;19.43;87.79;96080.34;4984270;28;20062;-81
2022/08/27 08:42:29;;;;;;;12.27;8.13;;;;;;;19.39;88.94;96076.75;4982201;28;20046;-82
2022/08/27 08:44:58;;;;;;;11.27;7.75;;;;;;;19.53;89.77;96077.66;4979665;28;20053;-81
2022/08/27 08:47:29;;;;;;;9.93;7.82;;;;;;;19.59;88.29;96080.88;4984377;28;20062;-81
2022/08/27 08:50:01;;;;;;;10.02;8.30;;;;;;;19.64;87.96;96082.50;4984230;28;20131;-81
2022/08/27 08:52:47;;;;;;;11.50;8.03;;;;;;;19.64;88.44;96082.50;4980556;28;20043;-81
2022/08/27 08:55:25;;;;;;;12.05;7.25;;;;;;;19.72;87.69;96078.59;4978666;28;20279;-81
2022/08/27 08:58:00;;;;;;;12.88;8.02;;;;;;;19.64;85.79;96079.75;4979897;28;20061;-81
2022/08/27 09:00:27;;;;;;;13.15;8.18;;;;;;;19.73;88.27;96081.00;4985213;28;20054;-81
2022/08/27 09:02:54;;;;;;;14.45;8.55;;;;;;;19.82;87.63;96083.41;4988192;28;20139;-82
2022/08/27 09:05:22;;;;;;;12.00;7.90;;;;;;;19.89;88.06;96083.47;4984021;28;20062;-82
2022/08/27 09:08:01;;;;;;;14.27;8.80;;;;;;;19.81;87.33;96082.63;4992108;28;20066;-81
2022/08/27 09:10:33;;;;;;;12.07;8.95;;;;;;;19.92;87.88;96074.41;4982012;28;20042;-79
2022/08/27 09:13:03;;;;;;;13.25;8.40;;;;;;;19.98;85.54;96080.34;4980613;28;20050;-78
2022/08/27 09:15:33;;;;;;;13.05;8.75;;;;;;;19.63;86.14;96080.91;4980654;28;20668;-78
2022/08/27 09:18:08;;;;;;;9.60;8.18;;;;;;;19.59;86.75;96078.13;4983181;28;20462;-79
2022/08/27 09:20:35;;;;;;;13.88;8.80;;;;;;;19.51;86.70;96074.47;4983051;28;20046;-80
2022/08/27 09:23:09;;;;;;;12.55;8.48;;;;;;;19.51;86.91;96085.53;4978754;28;20121;-82
2022/08/27 09:25:37;;;;;;;10.68;7.80;;;;;;;19.65;86.61;96081.31;4981302;28;20069;-81
2022/08/27 09:29:14;;;;;;;10.48;7.22;;;;;;;19.71;86.23;96077.03;4978396;28;20054;-81
2022/08/27 09:30:55;;;;;;;9.48;7.35;;;;;;;19.66;85.86;96078.16;4978368;28;20536;-80
2022/08/27 09:33:22;;;;;;;14.13;8.20;;;;;;;19.67;86.83;96081.72;4979364;28;20112;-81
2022/08/27 09:35:51;;;;;;;9.45;7.05;;;;;;;19.77;84.98;96081.00;4979237;28;20072;-81
2022/08/27 09:38:26;;;;;;;12.82;7.97;;;;;;;19.78;85.42;96090.88;4978152;28;20101;-81
2022/08/27 09:40:53;;;;;;;9.27;6.93;;;;;;;19.78;84.07;96085.34;4979856;28;20050;-80
2022/08/27 09:43:23;;;;;;;8.40;6.13;;;;;;;19.84;83.44;96086.59;4978978;28;20054;-80
2022/08/27 09:45:54;;;;;;;8.80;6.30;;;;;;;19.88;82.72;96084.63;4979447;28;20454;-80
2022/08/27 09:48:25;;;;;;;12.77;6.63;;;;;;;19.85;82.47;96088.19;4978744;28;20058;-80
2022/08/27 09:50:55;;;;;;;9.45;6.40;;;;;;;19.97;81.97;96085.09;4977891;28;20050;-80
2022/08/27 09:53:26;;;;;;;11.38;7.07;;;;;;;19.98;82.67;96086.66;4976704;28;20441;-80
2022/08/27 09:55:56;;;;;;;9.55;7.25;;;;;;;19.96;82.44;96089.03;4977517;28;20425;-80
2022/08/27 09:58:28;;;;;;;10.65;7.20;;;;;;;19.98;84.08;96085.88;4975797;28;20689;-80
2022/08/27 10:01:00;;;;;;;12.00;7.80;;;;;;;20.00;84.00;96084.34;4976162;28;20528;-81
2022/08/27 10:03:27;;;;;;;13.63;8.48;;;;;;;19.93;83.27;96072.44;4977916;28;20386;-80
2022/08/27 10:05:54;;;;;;;13.30;7.65;;;;;;;19.97;84.30;96074.03;4976738;28;20109;-80
2022/08/27 10:08:27;;;;;;;8.05;6.35;;;;;;;20.06;84.14;96074.50;4975647;28;20068;-80
2022/08/27 10:10:57;;;;;;;10.00;7.03;;;;;;;20.17;83.56;96066.25;4974988;28;20109;-80
2022/08/27 10:13:30;;;;;;;9.85;7.00;;;;;;;20.26;84.53;96074.22;4975646;28;20517;-80
2022/08/27 10:16:05;;;;;;;12.40;6.72;;;;;;;20.44;84.06;96069.53;4976810;28;20054;-80
2022/08/27 10:18:42;;;;;;;10.65;7.53;;;;;;;20.46;82.70;96072.72;4976611;28;20043;-80
2022/08/27 10:21:14;;;;;;;12.63;7.57;;;;;;;20.47;82.73;96068.81;4974012;28;20067;-80
2022/08/27 10:23:51;;;;;;;9.15;6.30;;;;;;;20.57;82.20;96062.53;4975004;28;20508;-80
2022/08/27 10:26:23;;;;;;;9.77;6.28;;;;;;;20.55;78.44;96066.84;4975386;28;20058;-81
2022/08/27 10:29:02;;;;;;;10.18;5.93;;;;;;;20.69;78.73;96063.34;4975252;28;20065;-81
2022/08/27 10:31:34;;;;;;;7.18;5.10;;;;;;;20.75;77.35;96053.47;4975783;28;20042;-80
2022/08/27 10:34:15;;;;;;;13.05;6.40;;;;;;;20.84;79.12;96048.34;4967598;28;20054;-79
2022/08/27 10:36:51;;;;;;;12.25;5.78;;;;;;;20.98;80.31;96047.56;4957680;28;20613;-80
2022/08/27 10:39:28;;;;;;;8.60;5.70;;;;;;;21.14;79.22;96049.97;4962033;28;20058;-80
2022/08/27 10:42:10;;;;;;;10.13;6.30;;;;;;;21.39;78.48;96048.03;4959746;28;20518;-80
2022/08/27 10:44:46;;;;;;;8.93;6.28;;;;;;;21.51;75.45;96038.56;4952919;28;20394;-80
2022/08/27 10:47:30;;;;;;;8.10;5.45;;;;;;;21.80;75.50;96036.53;4951713;28;20058;-80
2022/08/27 10:50:03;;;;;;;10.02;5.50;;;;;;;22.00;75.15;96040.44;4952120;28;20059;-80
2022/08/27 10:52:37;;;;;;;12.00;6.80;;;;;;;21.68;70.21;96039.72;4969171;28;20042;-80
2022/08/27 10:55:11;;;;;;;10.18;6.53;;;;;;;21.88;70.89;96032.56;4969968;28;20043;-80
2022/08/27 10:57:51;;;;;;;9.80;5.82;;;;;;;21.82;71.38;96031.38;4971015;28;20079;-79
2022/08/27 11:00:19;;;;;;;7.45;5.20;;;;;;;21.93;73.30;96028.59;4971457;28;20074;-79
2022/08/27 11:02:52;;;;;;;7.93;5.60;;;;;;;21.85;70.75;96034.16;4971847;28;20105;-80
2022/08/27 11:05:23;;;;;;;8.05;5.47;;;;;;;21.68;72.01;96036.97;4974432;28;20057;-80
2022/08/27 11:07:53;;;;;;;8.88;6.20;;;;;;;21.68;72.97;96039.72;4975325;28;20701;-80
2022/08/27 11:10:29;;;;;;;8.32;5.70;;;;;;;21.78;73.42;96028.63;4965506;28;20038;-81
2022/08/27 11:13:03;;;;;;;7.90;5.78;;;;;;;21.77;71.58;96029.00;4986786;28;20078;-79
2022/08/27 11:15:33;;;;;;;7.57;5.25;;;;;;;21.96;72.69;96028.56;4975851;28;20055;-80
2022/08/27 11:18:06;;;;;;;7.00;5.30;;;;;;;22.06;68.91;96030.53;4980953;28;20058;-80
2022/08/27 11:20:40;;;;;;;8.20;4.78;;;;;;;22.17;69.49;96021.41;4975821;28;20051;-80
2022/08/27 11:23:12;;;;;;;13.95;7.32;;;;;;;22.26;71.98;96019.00;4992688;23;20047;-79
2022/08/27 11:25:49;;;;;;;8.85;4.65;;;;;;;22.44;68.57;96019.72;4990732;28;20057;-80
2022/08/27 11:28:18;;;;;;;8.55;5.72;;;;;;;22.46;70.26;96014.56;4990050;28;20053;-77
2022/08/27 11:30:58;;;;;;;7.15;5.13;;;;;;;22.56;68.82;96022.06;4990721;28;20129;-80